sensor_id;sensor_type;location;lat;lon;timestamp;temperature;humidity
13198;DHT22;6664;52.514;13.440;2023-12-20T00:02:02;7.20;96.00
13198;DHT22;6664;52.514;13.440;2023-12-20T00:04:48;7.20;96.40
13198;DHT22;6664;52.514;13.440;2023-12-20T00:07:34;7.20;96.20
13198;DHT22;6664;52.514;13.440;2023-12-20T00:10:19;7.20;96.10
13198;DHT22;6664;52.514;13.440;2023-12-20T00:13:05;7.20;95.70
13198;DHT22;6664;52.514;13.440;2023-12-20T00:15:52;7.20;97.10
13198;DHT22;6664;52.514;13.440;2023-12-20T00:18:38;7.20;96.90
13198;DHT22;6664;52.514;13.440;2023-12-20T00:21:24;7.20;97.30
13198;DHT22;6664;52.514;13.440;2023-12-20T00:24:10;7.20;96.90
13198;DHT22;6664;52.514;13.440;2023-12-20T00:26:55;7.20;97.20
13198;DHT22;6664;52.514;13.440;2023-12-20T00:29:41;7.20;97.60
13198;DHT22;6664;52.514;13.440;2023-12-20T00:32:28;7.20;96.90
13198;DHT22;6664;52.514;13.440;2023-12-20T00:35:14;7.20;97.20
13198;DHT22;6664;52.514;13.440;2023-12-20T00:38:00;7.20;96.90
13198;DHT22;6664;52.514;13.440;2023-12-20T00:40:46;7.20;96.90
13198;DHT22;6664;52.514;13.440;2023-12-20T00:43:32;7.20;96.90
13198;DHT22;6664;52.514;13.440;2023-12-20T00:46:17;7.20;97.00
13198;DHT22;6664;52.514;13.440;2023-12-20T00:49:03;7.20;97.20
13198;DHT22;6664;52.514;13.440;2023-12-20T00:51:52;7.30;96.90
13198;DHT22;6664;52.514;13.440;2023-12-20T00:54:38;7.20;98.10
13198;DHT22;6664;52.514;13.440;2023-12-20T00:57:24;7.20;97.80
13198;DHT22;6664;52.514;13.440;2023-12-20T01:00:11;7.20;97.80
13198;DHT22;6664;52.514;13.440;2023-12-20T01:02:56;7.20;96.90
13198;DHT22;6664;52.514;13.440;2023-12-20T01:05:42;7.20;96.90
13198;DHT22;6664;52.514;13.440;2023-12-20T01:08:28;7.20;96.90
13198;DHT22;6664;52.514;13.440;2023-12-20T01:11:14;7.20;96.90
13198;DHT22;6664;52.514;13.440;2023-12-20T01:13:59;7.20;96.80
13198;DHT22;6664;52.514;13.440;2023-12-20T01:16:45;7.30;96.90
13198;DHT22;6664;52.514;13.440;2023-12-20T01:19:31;7.20;95.60
13198;DHT22;6664;52.514;13.440;2023-12-20T01:22:17;7.20;97.20
13198;DHT22;6664;52.514;13.440;2023-12-20T01:25:03;7.30;98.20
13198;DHT22;6664;52.514;13.440;2023-12-20T01:27:49;7.20;98.20
13198;DHT22;6664;52.514;13.440;2023-12-20T01:30:35;7.10;99.40
13198;DHT22;6664;52.514;13.440;2023-12-20T01:33:21;7.10;99.90
13198;DHT22;6664;52.514;13.440;2023-12-20T01:36:07;7.10;99.90
13198;DHT22;6664;52.514;13.440;2023-12-20T01:38:52;7.10;99.90
13198;DHT22;6664;52.514;13.440;2023-12-20T01:41:38;7.10;99.90
13198;DHT22;6664;52.514;13.440;2023-12-20T01:44:26;7.00;99.90
13198;DHT22;6664;52.514;13.440;2023-12-20T01:47:15;7.10;99.90
13198;DHT22;6664;52.514;13.440;2023-12-20T01:50:01;7.10;99.90
13198;DHT22;6664;52.514;13.440;2023-12-20T01:52:49;7.10;99.90
13198;DHT22;6664;52.514;13.440;2023-12-20T01:55:40;7.10;99.90
13198;DHT22;6664;52.514;13.440;2023-12-20T01:58:26;7.10;99.90
13198;DHT22;6664;52.514;13.440;2023-12-20T02:01:40;7.00;99.90
13198;DHT22;6664;52.514;13.440;2023-12-20T02:04:28;7.00;99.90
13198;DHT22;6664;52.514;13.440;2023-12-20T02:07:19;6.90;99.90
13198;DHT22;6664;52.514;13.440;2023-12-20T02:10:10;6.80;99.90
13198;DHT22;6664;52.514;13.440;2023-12-20T02:12:58;6.90;99.90
13198;DHT22;6664;52.514;13.440;2023-12-20T02:15:44;6.90;99.90
13198;DHT22;6664;52.514;13.440;2023-12-20T02:18:30;6.90;99.90
13198;DHT22;6664;52.514;13.440;2023-12-20T02:21:19;6.80;99.90
13198;DHT22;6664;52.514;13.440;2023-12-20T02:24:07;6.80;99.90
13198;DHT22;6664;52.514;13.440;2023-12-20T02:26:53;6.70;96.70
13198;DHT22;6664;52.514;13.440;2023-12-20T02:29:40;6.70;99.50
13198;DHT22;6664;52.514;13.440;2023-12-20T02:32:27;6.70;99.90
13198;DHT22;6664;52.514;13.440;2023-12-20T02:35:14;6.70;99.90
13198;DHT22;6664;52.514;13.440;2023-12-20T02:38:01;6.70;99.90
13198;DHT22;6664;52.514;13.440;2023-12-20T02:40:46;6.70;99.90
13198;DHT22;6664;52.514;13.440;2023-12-20T02:43:34;6.80;99.90
13198;DHT22;6664;52.514;13.440;2023-12-20T02:46:20;6.80;99.90
13198;DHT22;6664;52.514;13.440;2023-12-20T02:49:06;6.90;99.90
13198;DHT22;6664;52.514;13.440;2023-12-20T02:51:52;6.90;99.90
13198;DHT22;6664;52.514;13.440;2023-12-20T02:54:37;7.00;99.90
13198;DHT22;6664;52.514;13.440;2023-12-20T02:57:25;7.00;99.90
13198;DHT22;6664;52.514;13.440;2023-12-20T03:00:10;7.00;99.90
13198;DHT22;6664;52.514;13.440;2023-12-20T03:02:56;7.00;96.80
13198;DHT22;6664;52.514;13.440;2023-12-20T03:05:45;7.10;96.30
13198;DHT22;6664;52.514;13.440;2023-12-20T03:08:31;7.00;95.40
13198;DHT22;6664;52.514;13.440;2023-12-20T03:11:17;7.10;94.90
13198;DHT22;6664;52.514;13.440;2023-12-20T03:14:02;7.00;94.10
13198;DHT22;6664;52.514;13.440;2023-12-20T03:16:52;7.00;92.50
13198;DHT22;6664;52.514;13.440;2023-12-20T03:19:40;7.00;91.70
13198;DHT22;6664;52.514;13.440;2023-12-20T03:22:25;7.00;91.70
13198;DHT22;6664;52.514;13.440;2023-12-20T03:25:11;7.00;91.40
13198;DHT22;6664;52.514;13.440;2023-12-20T03:27:56;7.00;91.90
13198;DHT22;6664;52.514;13.440;2023-12-20T03:30:42;7.00;89.00
13198;DHT22;6664;52.514;13.440;2023-12-20T03:33:28;6.90;90.30
13198;DHT22;6664;52.514;13.440;2023-12-20T03:36:14;6.90;90.40
13198;DHT22;6664;52.514;13.440;2023-12-20T03:39:00;6.90;90.30
13198;DHT22;6664;52.514;13.440;2023-12-20T03:41:45;6.90;90.30
13198;DHT22;6664;52.514;13.440;2023-12-20T03:44:31;6.90;90.00
13198;DHT22;6664;52.514;13.440;2023-12-20T03:47:19;6.90;90.00
13198;DHT22;6664;52.514;13.440;2023-12-20T03:50:05;6.90;89.10
13198;DHT22;6664;52.514;13.440;2023-12-20T03:52:51;6.90;88.70
13198;DHT22;6664;52.514;13.440;2023-12-20T03:55:37;6.90;89.00
13198;DHT22;6664;52.514;13.440;2023-12-20T03:58:22;6.80;87.30
13198;DHT22;6664;52.514;13.440;2023-12-20T04:01:10;6.80;88.80
13198;DHT22;6664;52.514;13.440;2023-12-20T04:03:57;6.80;88.40
13198;DHT22;6664;52.514;13.440;2023-12-20T04:06:43;6.80;88.80
13198;DHT22;6664;52.514;13.440;2023-12-20T04:09:29;6.80;87.20
13198;DHT22;6664;52.514;13.440;2023-12-20T04:12:14;6.70;86.80
13198;DHT22;6664;52.514;13.440;2023-12-20T04:15:00;6.70;86.70
13198;DHT22;6664;52.514;13.440;2023-12-20T04:17:46;6.60;86.10
13198;DHT22;6664;52.514;13.440;2023-12-20T04:20:32;6.60;86.30
13198;DHT22;6664;52.514;13.440;2023-12-20T04:23:20;6.50;85.70
13198;DHT22;6664;52.514;13.440;2023-12-20T04:26:05;6.50;86.10
13198;DHT22;6664;52.514;13.440;2023-12-20T04:28:50;6.40;87.10
13198;DHT22;6664;52.514;13.440;2023-12-20T04:31:39;6.30;85.70
13198;DHT22;6664;52.514;13.440;2023-12-20T04:34:25;6.30;85.90
13198;DHT22;6664;52.514;13.440;2023-12-20T04:37:11;6.20;86.10
13198;DHT22;6664;52.514;13.440;2023-12-20T04:39:57;6.10;87.70
13198;DHT22;6664;52.514;13.440;2023-12-20T04:42:42;6.00;88.60
13198;DHT22;6664;52.514;13.440;2023-12-20T04:45:28;5.90;88.10
13198;DHT22;6664;52.514;13.440;2023-12-20T04:48:15;5.90;90.30
13198;DHT22;6664;52.514;13.440;2023-12-20T04:51:02;5.80;90.20
13198;DHT22;6664;52.514;13.440;2023-12-20T04:53:47;5.70;92.10
13198;DHT22;6664;52.514;13.440;2023-12-20T04:56:33;5.60;91.60
13198;DHT22;6664;52.514;13.440;2023-12-20T04:59:18;5.60;93.40
13198;DHT22;6664;52.514;13.440;2023-12-20T05:02:03;5.60;92.40
13198;DHT22;6664;52.514;13.440;2023-12-20T05:04:49;5.70;91.70
13198;DHT22;6664;52.514;13.440;2023-12-20T05:07:39;5.80;90.70
13198;DHT22;6664;52.514;13.440;2023-12-20T05:10:25;6.00;89.50
13198;DHT22;6664;52.514;13.440;2023-12-20T05:13:12;6.00;86.90
13198;DHT22;6664;52.514;13.440;2023-12-20T05:15:58;6.10;85.10
13198;DHT22;6664;52.514;13.440;2023-12-20T05:18:45;6.20;82.40
13198;DHT22;6664;52.514;13.440;2023-12-20T05:21:31;6.30;82.30
13198;DHT22;6664;52.514;13.440;2023-12-20T05:24:17;6.30;81.90
13198;DHT22;6664;52.514;13.440;2023-12-20T05:27:02;6.20;81.80
13198;DHT22;6664;52.514;13.440;2023-12-20T05:29:48;6.00;83.20
13198;DHT22;6664;52.514;13.440;2023-12-20T05:32:33;5.90;83.80
13198;DHT22;6664;52.514;13.440;2023-12-20T05:35:19;5.80;83.20
13198;DHT22;6664;52.514;13.440;2023-12-20T05:38:05;5.60;84.70
13198;DHT22;6664;52.514;13.440;2023-12-20T05:40:53;5.60;84.10
13198;DHT22;6664;52.514;13.440;2023-12-20T05:43:43;5.50;85.80
13198;DHT22;6664;52.514;13.440;2023-12-20T05:46:31;5.50;85.90
13198;DHT22;6664;52.514;13.440;2023-12-20T05:49:17;5.40;87.10
13198;DHT22;6664;52.514;13.440;2023-12-20T05:52:02;5.30;89.00
13198;DHT22;6664;52.514;13.440;2023-12-20T05:54:51;5.30;86.70
13198;DHT22;6664;52.514;13.440;2023-12-20T05:57:37;5.20;87.20
13198;DHT22;6664;52.514;13.440;2023-12-20T06:00:25;5.20;89.20
13198;DHT22;6664;52.514;13.440;2023-12-20T06:03:10;5.20;88.90
13198;DHT22;6664;52.514;13.440;2023-12-20T06:05:56;5.10;90.20
13198;DHT22;6664;52.514;13.440;2023-12-20T06:08:57;5.10;90.60
13198;DHT22;6664;52.514;13.440;2023-12-20T06:11:43;5.10;90.40
13198;DHT22;6664;52.514;13.440;2023-12-20T06:14:31;5.30;89.30
13198;DHT22;6664;52.514;13.440;2023-12-20T06:17:17;5.40;87.60
13198;DHT22;6664;52.514;13.440;2023-12-20T06:20:03;5.30;87.30
13198;DHT22;6664;52.514;13.440;2023-12-20T06:22:53;5.30;87.80
13198;DHT22;6664;52.514;13.440;2023-12-20T06:25:39;5.30;87.40
13198;DHT22;6664;52.514;13.440;2023-12-20T06:28:27;5.30;87.00
13198;DHT22;6664;52.514;13.440;2023-12-20T06:31:15;5.30;86.50
13198;DHT22;6664;52.514;13.440;2023-12-20T06:34:03;5.30;86.80
13198;DHT22;6664;52.514;13.440;2023-12-20T06:36:49;5.30;86.50
13198;DHT22;6664;52.514;13.440;2023-12-20T06:39:36;5.30;85.60
13198;DHT22;6664;52.514;13.440;2023-12-20T06:42:25;5.30;85.40
13198;DHT22;6664;52.514;13.440;2023-12-20T06:45:12;5.40;85.50
13198;DHT22;6664;52.514;13.440;2023-12-20T06:47:58;5.40;84.60
13198;DHT22;6664;52.514;13.440;2023-12-20T06:50:43;5.40;84.50
13198;DHT22;6664;52.514;13.440;2023-12-20T06:53:29;5.40;84.50
13198;DHT22;6664;52.514;13.440;2023-12-20T06:56:15;5.40;84.60
13198;DHT22;6664;52.514;13.440;2023-12-20T06:59:04;5.40;84.60
13198;DHT22;6664;52.514;13.440;2023-12-20T07:01:49;5.50;84.80
13198;DHT22;6664;52.514;13.440;2023-12-20T07:04:40;5.60;82.60
13198;DHT22;6664;52.514;13.440;2023-12-20T07:07:28;5.60;82.00
13198;DHT22;6664;52.514;13.440;2023-12-20T07:10:16;5.70;81.80
13198;DHT22;6664;52.514;13.440;2023-12-20T07:13:01;5.60;82.20
13198;DHT22;6664;52.514;13.440;2023-12-20T07:15:47;5.70;81.10
13198;DHT22;6664;52.514;13.440;2023-12-20T07:18:35;5.70;80.90
13198;DHT22;6664;52.514;13.440;2023-12-20T07:21:20;5.80;80.10
13198;DHT22;6664;52.514;13.440;2023-12-20T07:24:06;5.80;79.30
13198;DHT22;6664;52.514;13.440;2023-12-20T07:26:52;5.90;78.30
13198;DHT22;6664;52.514;13.440;2023-12-20T07:29:38;5.80;78.50
13198;DHT22;6664;52.514;13.440;2023-12-20T07:32:23;5.90;78.00
13198;DHT22;6664;52.514;13.440;2023-12-20T07:35:09;5.80;77.90
13198;DHT22;6664;52.514;13.440;2023-12-20T07:37:54;5.90;77.50
13198;DHT22;6664;52.514;13.440;2023-12-20T07:40:40;5.90;76.70
13198;DHT22;6664;52.514;13.440;2023-12-20T07:43:30;5.90;76.20
13198;DHT22;6664;52.514;13.440;2023-12-20T07:46:18;5.90;75.70
13198;DHT22;6664;52.514;13.440;2023-12-20T07:49:07;5.90;76.10
13198;DHT22;6664;52.514;13.440;2023-12-20T07:51:54;5.90;75.60
13198;DHT22;6664;52.514;13.440;2023-12-20T07:54:40;5.90;75.50
13198;DHT22;6664;52.514;13.440;2023-12-20T07:57:29;6.00;74.80
13198;DHT22;6664;52.514;13.440;2023-12-20T08:00:17;6.00;74.60
13198;DHT22;6664;52.514;13.440;2023-12-20T08:03:03;6.00;73.50
13198;DHT22;6664;52.514;13.440;2023-12-20T08:05:49;6.00;73.50
13198;DHT22;6664;52.514;13.440;2023-12-20T08:08:37;6.00;72.90
13198;DHT22;6664;52.514;13.440;2023-12-20T08:11:26;6.10;72.50
13198;DHT22;6664;52.514;13.440;2023-12-20T08:14:12;6.10;71.60
13198;DHT22;6664;52.514;13.440;2023-12-20T08:17:07;6.20;71.40
13198;DHT22;6664;52.514;13.440;2023-12-20T08:19:52;6.20;71.40
13198;DHT22;6664;52.514;13.440;2023-12-20T08:22:38;6.20;70.70
13198;DHT22;6664;52.514;13.440;2023-12-20T08:25:26;6.10;73.90
13198;DHT22;6664;52.514;13.440;2023-12-20T08:28:12;6.10;72.40
13198;DHT22;6664;52.514;13.440;2023-12-20T08:30:58;6.00;72.30
13198;DHT22;6664;52.514;13.440;2023-12-20T08:33:48;6.10;71.80
13198;DHT22;6664;52.514;13.440;2023-12-20T08:36:34;6.20;71.70
13198;DHT22;6664;52.514;13.440;2023-12-20T08:39:19;6.20;70.70
13198;DHT22;6664;52.514;13.440;2023-12-20T08:42:07;6.30;70.40
13198;DHT22;6664;52.514;13.440;2023-12-20T08:44:52;6.30;70.00
13198;DHT22;6664;52.514;13.440;2023-12-20T08:47:38;6.40;70.10
13198;DHT22;6664;52.514;13.440;2023-12-20T08:50:23;6.50;69.00
13198;DHT22;6664;52.514;13.440;2023-12-20T08:53:11;6.60;67.30
13198;DHT22;6664;52.514;13.440;2023-12-20T08:55:58;6.70;67.50
13198;DHT22;6664;52.514;13.440;2023-12-20T08:58:46;6.50;67.50
13198;DHT22;6664;52.514;13.440;2023-12-20T09:01:34;6.40;67.90
13198;DHT22;6664;52.514;13.440;2023-12-20T09:04:23;6.30;69.40
13198;DHT22;6664;52.514;13.440;2023-12-20T09:07:27;6.30;69.60
13198;DHT22;6664;52.514;13.440;2023-12-20T09:10:16;6.50;68.60
13198;DHT22;6664;52.514;13.440;2023-12-20T09:13:04;6.60;68.30
13198;DHT22;6664;52.514;13.440;2023-12-20T09:15:49;6.90;67.50
13198;DHT22;6664;52.514;13.440;2023-12-20T09:18:35;7.00;65.10
13198;DHT22;6664;52.514;13.440;2023-12-20T09:21:21;7.00;65.00
13198;DHT22;6664;52.514;13.440;2023-12-20T09:24:07;7.00;64.90
13198;DHT22;6664;52.514;13.440;2023-12-20T09:26:54;7.00;62.80
13198;DHT22;6664;52.514;13.440;2023-12-20T09:29:40;7.00;63.70
13198;DHT22;6664;52.514;13.440;2023-12-20T09:32:25;6.90;63.90
13198;DHT22;6664;52.514;13.440;2023-12-20T09:35:11;7.10;63.70
13198;DHT22;6664;52.514;13.440;2023-12-20T09:37:57;7.00;63.30
13198;DHT22;6664;52.514;13.440;2023-12-20T09:40:43;7.10;63.30
13198;DHT22;6664;52.514;13.440;2023-12-20T09:43:29;6.80;63.30
13198;DHT22;6664;52.514;13.440;2023-12-20T09:46:18;7.00;63.10
13198;DHT22;6664;52.514;13.440;2023-12-20T09:49:06;7.10;63.20
13198;DHT22;6664;52.514;13.440;2023-12-20T09:51:55;7.10;61.70
13198;DHT22;6664;52.514;13.440;2023-12-20T09:54:42;7.20;62.10
13198;DHT22;6664;52.514;13.440;2023-12-20T09:57:31;7.00;62.60
13198;DHT22;6664;52.514;13.440;2023-12-20T10:00:17;7.00;62.00
13198;DHT22;6664;52.514;13.440;2023-12-20T10:03:06;6.90;62.70
13198;DHT22;6664;52.514;13.440;2023-12-20T10:05:56;7.00;62.40
13198;DHT22;6664;52.514;13.440;2023-12-20T10:08:43;7.00;62.30
13198;DHT22;6664;52.514;13.440;2023-12-20T10:11:31;7.10;61.30
13198;DHT22;6664;52.514;13.440;2023-12-20T10:14:17;7.10;60.50
13198;DHT22;6664;52.514;13.440;2023-12-20T10:17:07;7.20;60.60
13198;DHT22;6664;52.514;13.440;2023-12-20T10:19:53;7.20;60.40
13198;DHT22;6664;52.514;13.440;2023-12-20T10:22:39;7.20;59.60
13198;DHT22;6664;52.514;13.440;2023-12-20T10:25:26;7.20;59.90
13198;DHT22;6664;52.514;13.440;2023-12-20T10:28:16;7.10;59.80
13198;DHT22;6664;52.514;13.440;2023-12-20T10:31:08;7.10;59.80
13198;DHT22;6664;52.514;13.440;2023-12-20T10:33:57;7.20;60.00
13198;DHT22;6664;52.514;13.440;2023-12-20T10:36:43;7.30;59.60
13198;DHT22;6664;52.514;13.440;2023-12-20T10:39:29;7.20;59.20
13198;DHT22;6664;52.514;13.440;2023-12-20T10:42:16;7.20;59.00
13198;DHT22;6664;52.514;13.440;2023-12-20T10:45:01;7.20;58.00
13198;DHT22;6664;52.514;13.440;2023-12-20T10:47:49;7.30;58.30
13198;DHT22;6664;52.514;13.440;2023-12-20T10:50:36;7.40;58.60
13198;DHT22;6664;52.514;13.440;2023-12-20T10:53:27;7.50;57.30
13198;DHT22;6664;52.514;13.440;2023-12-20T10:56:16;7.40;56.60
13198;DHT22;6664;52.514;13.440;2023-12-20T10:59:02;7.50;57.10
13198;DHT22;6664;52.514;13.440;2023-12-20T11:01:50;7.50;56.90
13198;DHT22;6664;52.514;13.440;2023-12-20T11:04:56;7.40;56.70
13198;DHT22;6664;52.514;13.440;2023-12-20T11:07:52;7.40;56.60
13198;DHT22;6664;52.514;13.440;2023-12-20T11:14:08;7.50;56.40
13198;DHT22;6664;52.514;13.440;2023-12-20T11:17:09;7.50;56.20
13198;DHT22;6664;52.514;13.440;2023-12-20T11:22:54;7.50;58.70
13198;DHT22;6664;52.514;13.440;2023-12-20T11:25:54;7.50;58.50
13198;DHT22;6664;52.514;13.440;2023-12-20T11:28:41;7.50;57.90
13198;DHT22;6664;52.514;13.440;2023-12-20T11:31:27;7.30;59.30
13198;DHT22;6664;52.514;13.440;2023-12-20T11:34:13;7.40;60.50
13198;DHT22;6664;52.514;13.440;2023-12-20T11:37:02;7.40;60.60
13198;DHT22;6664;52.514;13.440;2023-12-20T11:40:17;7.30;61.00
13198;DHT22;6664;52.514;13.440;2023-12-20T11:43:04;7.20;60.30
13198;DHT22;6664;52.514;13.440;2023-12-20T11:45:51;7.10;60.30
13198;DHT22;6664;52.514;13.440;2023-12-20T11:48:40;7.20;60.40
13198;DHT22;6664;52.514;13.440;2023-12-20T11:51:26;7.20;60.00
13198;DHT22;6664;52.514;13.440;2023-12-20T11:54:15;7.20;60.30
13198;DHT22;6664;52.514;13.440;2023-12-20T11:57:01;7.20;61.00
13198;DHT22;6664;52.514;13.440;2023-12-20T11:59:47;7.30;60.50
13198;DHT22;6664;52.514;13.440;2023-12-20T12:02:34;7.20;61.00
13198;DHT22;6664;52.514;13.440;2023-12-20T12:05:20;7.20;61.60
13198;DHT22;6664;52.514;13.440;2023-12-20T12:08:06;7.30;60.60
13198;DHT22;6664;52.514;13.440;2023-12-20T12:10:56;7.40;60.00
13198;DHT22;6664;52.514;13.440;2023-12-20T12:13:41;7.50;59.70
13198;DHT22;6664;52.514;13.440;2023-12-20T12:16:28;7.50;59.80
13198;DHT22;6664;52.514;13.440;2023-12-20T12:19:26;7.30;59.30
13198;DHT22;6664;52.514;13.440;2023-12-20T12:22:14;7.40;58.90
13198;DHT22;6664;52.514;13.440;2023-12-20T12:25:13;7.50;58.60
13198;DHT22;6664;52.514;13.440;2023-12-20T12:27:59;7.50;57.90
13198;DHT22;6664;52.514;13.440;2023-12-20T12:30:58;7.40;99.90
13198;DHT22;6664;52.514;13.440;2023-12-20T12:33:45;7.30;64.30
13198;DHT22;6664;52.514;13.440;2023-12-20T12:36:33;7.10;62.80
13198;DHT22;6664;52.514;13.440;2023-12-20T12:39:19;7.10;64.20
13198;DHT22;6664;52.514;13.440;2023-12-20T12:42:05;7.00;65.10
13198;DHT22;6664;52.514;13.440;2023-12-20T12:44:52;6.90;67.60
13198;DHT22;6664;52.514;13.440;2023-12-20T12:47:38;6.90;67.50
13198;DHT22;6664;52.514;13.440;2023-12-20T12:50:24;6.90;67.20
13198;DHT22;6664;52.514;13.440;2023-12-20T12:53:10;6.80;68.40
13198;DHT22;6664;52.514;13.440;2023-12-20T12:55:56;6.80;68.00
13198;DHT22;6664;52.514;13.440;2023-12-20T12:58:44;6.90;67.40
13198;DHT22;6664;52.514;13.440;2023-12-20T13:01:30;6.80;68.00
13198;DHT22;6664;52.514;13.440;2023-12-20T13:04:15;6.80;69.30
13198;DHT22;6664;52.514;13.440;2023-12-20T13:07:01;6.80;68.60
13198;DHT22;6664;52.514;13.440;2023-12-20T13:09:50;6.80;70.50
13198;DHT22;6664;52.514;13.440;2023-12-20T13:12:36;6.70;70.50
13198;DHT22;6664;52.514;13.440;2023-12-20T13:15:22;6.70;72.30
13198;DHT22;6664;52.514;13.440;2023-12-20T13:18:07;6.70;73.00
13198;DHT22;6664;52.514;13.440;2023-12-20T13:20:53;6.60;74.50
13198;DHT22;6664;52.514;13.440;2023-12-20T13:23:39;6.50;78.30
13198;DHT22;6664;52.514;13.440;2023-12-20T13:26:25;6.00;99.90
13198;DHT22;6664;52.514;13.440;2023-12-20T13:29:11;5.10;99.90
13198;DHT22;6664;52.514;13.440;2023-12-20T13:31:57;4.80;99.90
13198;DHT22;6664;52.514;13.440;2023-12-20T13:34:43;4.80;99.90
13198;DHT22;6664;52.514;13.440;2023-12-20T13:37:29;4.80;99.90
13198;DHT22;6664;52.514;13.440;2023-12-20T13:40:18;4.80;99.90
13198;DHT22;6664;52.514;13.440;2023-12-20T13:43:04;4.80;99.90
13198;DHT22;6664;52.514;13.440;2023-12-20T13:45:51;4.70;99.90
13198;DHT22;6664;52.514;13.440;2023-12-20T13:48:39;4.70;99.90
13198;DHT22;6664;52.514;13.440;2023-12-20T13:51:24;4.60;99.90
13198;DHT22;6664;52.514;13.440;2023-12-20T13:54:10;4.50;99.90
13198;DHT22;6664;52.514;13.440;2023-12-20T13:56:56;4.30;99.90
13198;DHT22;6664;52.514;13.440;2023-12-20T13:59:57;4.20;99.90
13198;DHT22;6664;52.514;13.440;2023-12-20T14:02:43;4.10;99.90
13198;DHT22;6664;52.514;13.440;2023-12-20T14:05:28;4.10;99.90
13198;DHT22;6664;52.514;13.440;2023-12-20T14:08:14;4.10;99.90
13198;DHT22;6664;52.514;13.440;2023-12-20T14:11:03;4.10;99.90
13198;DHT22;6664;52.514;13.440;2023-12-20T14:13:48;4.10;99.90
13198;DHT22;6664;52.514;13.440;2023-12-20T14:16:34;4.10;99.90
13198;DHT22;6664;52.514;13.440;2023-12-20T14:19:20;4.00;99.90
13198;DHT22;6664;52.514;13.440;2023-12-20T14:22:06;4.10;99.90
13198;DHT22;6664;52.514;13.440;2023-12-20T14:24:51;4.00;99.90
13198;DHT22;6664;52.514;13.440;2023-12-20T14:27:41;4.10;99.90
13198;DHT22;6664;52.514;13.440;2023-12-20T14:30:30;4.30;99.90
13198;DHT22;6664;52.514;13.440;2023-12-20T14:33:16;4.30;99.90
13198;DHT22;6664;52.514;13.440;2023-12-20T14:36:04;4.40;99.90
13198;DHT22;6664;52.514;13.440;2023-12-20T14:38:53;4.40;99.90
13198;DHT22;6664;52.514;13.440;2023-12-20T14:41:39;4.50;99.90
13198;DHT22;6664;52.514;13.440;2023-12-20T14:44:29;4.50;99.90
13198;DHT22;6664;52.514;13.440;2023-12-20T14:47:14;4.60;99.90
13198;DHT22;6664;52.514;13.440;2023-12-20T14:50:02;4.50;99.90
13198;DHT22;6664;52.514;13.440;2023-12-20T14:52:50;4.50;99.90
13198;DHT22;6664;52.514;13.440;2023-12-20T14:55:39;4.40;99.90
13198;DHT22;6664;52.514;13.440;2023-12-20T14:58:27;4.50;99.90
13198;DHT22;6664;52.514;13.440;2023-12-20T15:01:14;4.40;99.90
13198;DHT22;6664;52.514;13.440;2023-12-20T15:04:00;4.50;99.90
13198;DHT22;6664;52.514;13.440;2023-12-20T15:06:46;4.40;99.90
13198;DHT22;6664;52.514;13.440;2023-12-20T15:09:32;4.60;99.90
13198;DHT22;6664;52.514;13.440;2023-12-20T15:12:17;4.60;99.90
13198;DHT22;6664;52.514;13.440;2023-12-20T15:15:03;4.80;99.90
13198;DHT22;6664;52.514;13.440;2023-12-20T15:17:51;4.90;99.90
13198;DHT22;6664;52.514;13.440;2023-12-20T15:20:37;4.90;99.90
13198;DHT22;6664;52.514;13.440;2023-12-20T15:23:23;5.00;99.90
13198;DHT22;6664;52.514;13.440;2023-12-20T15:26:13;5.10;99.90
13198;DHT22;6664;52.514;13.440;2023-12-20T15:28:59;5.00;99.90
13198;DHT22;6664;52.514;13.440;2023-12-20T15:31:48;4.90;99.90
13198;DHT22;6664;52.514;13.440;2023-12-20T15:34:34;4.80;99.90
13198;DHT22;6664;52.514;13.440;2023-12-20T15:37:22;4.60;99.90
13198;DHT22;6664;52.514;13.440;2023-12-20T15:40:09;4.50;99.90
13198;DHT22;6664;52.514;13.440;2023-12-20T15:42:58;4.40;99.90
13198;DHT22;6664;52.514;13.440;2023-12-20T15:45:45;4.40;99.90
13198;DHT22;6664;52.514;13.440;2023-12-20T15:48:31;4.30;99.90
13198;DHT22;6664;52.514;13.440;2023-12-20T15:51:17;4.10;99.90
13198;DHT22;6664;52.514;13.440;2023-12-20T15:54:06;4.30;99.90
13198;DHT22;6664;52.514;13.440;2023-12-20T15:56:53;4.10;99.90
13198;DHT22;6664;52.514;13.440;2023-12-20T15:59:39;4.10;99.90
13198;DHT22;6664;52.514;13.440;2023-12-20T16:02:24;4.10;99.90
13198;DHT22;6664;52.514;13.440;2023-12-20T16:05:10;4.00;99.90
13198;DHT22;6664;52.514;13.440;2023-12-20T16:07:58;4.10;99.90
13198;DHT22;6664;52.514;13.440;2023-12-20T16:10:44;4.00;99.90
13198;DHT22;6664;52.514;13.440;2023-12-20T16:13:29;3.90;99.90
13198;DHT22;6664;52.514;13.440;2023-12-20T16:16:17;4.10;99.90
13198;DHT22;6664;52.514;13.440;2023-12-20T16:19:03;4.10;99.90
13198;DHT22;6664;52.514;13.440;2023-12-20T16:21:52;4.20;99.90
13198;DHT22;6664;52.514;13.440;2023-12-20T16:24:39;4.10;99.90
13198;DHT22;6664;52.514;13.440;2023-12-20T16:27:24;4.10;99.90
13198;DHT22;6664;52.514;13.440;2023-12-20T16:30:10;4.10;99.90
13198;DHT22;6664;52.514;13.440;2023-12-20T16:32:56;4.00;99.90
13198;DHT22;6664;52.514;13.440;2023-12-20T16:35:44;4.00;99.90
13198;DHT22;6664;52.514;13.440;2023-12-20T16:38:29;4.10;99.90
13198;DHT22;6664;52.514;13.440;2023-12-20T16:41:15;4.00;99.90
13198;DHT22;6664;52.514;13.440;2023-12-20T16:44:01;4.10;99.90
13198;DHT22;6664;52.514;13.440;2023-12-20T16:46:46;4.30;99.90
13198;DHT22;6664;52.514;13.440;2023-12-20T16:49:32;4.30;99.90
13198;DHT22;6664;52.514;13.440;2023-12-20T16:52:20;4.30;99.90
13198;DHT22;6664;52.514;13.440;2023-12-20T16:55:09;4.20;99.90
13198;DHT22;6664;52.514;13.440;2023-12-20T16:57:56;4.20;99.90
13198;DHT22;6664;52.514;13.440;2023-12-20T17:00:41;4.20;99.90
13198;DHT22;6664;52.514;13.440;2023-12-20T17:03:27;4.10;99.90
13198;DHT22;6664;52.514;13.440;2023-12-20T17:06:13;4.10;99.90
13198;DHT22;6664;52.514;13.440;2023-12-20T17:08:58;4.10;99.90
13198;DHT22;6664;52.514;13.440;2023-12-20T17:11:44;4.10;99.90
13198;DHT22;6664;52.514;13.440;2023-12-20T17:14:32;4.00;99.90
13198;DHT22;6664;52.514;13.440;2023-12-20T17:17:18;4.10;99.90
13198;DHT22;6664;52.514;13.440;2023-12-20T17:20:03;4.10;99.90
13198;DHT22;6664;52.514;13.440;2023-12-20T17:22:50;4.10;99.90
13198;DHT22;6664;52.514;13.440;2023-12-20T17:25:35;4.10;99.90
13198;DHT22;6664;52.514;13.440;2023-12-20T17:28:27;4.20;99.90
13198;DHT22;6664;52.514;13.440;2023-12-20T17:31:13;4.40;99.90
13198;DHT22;6664;52.514;13.440;2023-12-20T17:33:58;4.50;99.90
13198;DHT22;6664;52.514;13.440;2023-12-20T17:36:44;4.50;99.90
13198;DHT22;6664;52.514;13.440;2023-12-20T17:39:32;4.50;99.90
13198;DHT22;6664;52.514;13.440;2023-12-20T17:42:17;4.60;99.90
13198;DHT22;6664;52.514;13.440;2023-12-20T17:45:03;4.80;99.90
13198;DHT22;6664;52.514;13.440;2023-12-20T17:47:51;4.80;99.90
13198;DHT22;6664;52.514;13.440;2023-12-20T17:50:38;4.80;99.90
13198;DHT22;6664;52.514;13.440;2023-12-20T17:53:24;4.80;99.90
13198;DHT22;6664;52.514;13.440;2023-12-20T17:56:10;4.90;99.90
13198;DHT22;6664;52.514;13.440;2023-12-20T17:58:56;4.90;99.90